메인 페이지
METAR-TAF:

METAR-TAF

공항 :

스타브로폴, 러시아

위도: 45-20N, 경도: 042-00E, 고도: 453m

현재 날씨관측

예보는 35분 전, 13:30시(UTC)에 발표되었습니다.
북서6kt
온도 19°C
습도 40%
기압 1018 hPa
시정 10km 이상
1500m 미만 상공 구름 및 적란운 없음

METAR: URMT 241330Z 32003MPS CAVOK 19/05 Q1018 R25/010070 NOSIG RMK QFE725

시각: 18:05 (14:05 UTC)

예보

예보는 3 시간 5분 전, 11:00시(UTC)에 발표되었습니다.
예보 대상 시간: 24일 12시부터 24일 21시까지 (UTC)
서북서6kt, 순간 최대 풍속 16kt
시정 10km 이상
고도 2000ft 상공 구름 보통

TAF: URMT 241100Z 2412/2421 29003G08MPS 9999 SCT020

4,000개 이상의 공항 관측 자료 및 예보 (METAR 및 TAF 보고).

지도상에서 검색 가능한 기상관측소가 노란 점과 빨간 점으로 표시되어 있습니다.

기상관측소 명을 보려면 표시 위로 마우스를 이동하세요.

날씨 관측과 예보를 보려면 클릭하세요.

지도 변경 : 확대하려면 엑스 표시가 있는 녹색 버튼, 축소하려면 빼기 표시가 있는 녹색 버튼, 다음 페이지의 지도를 보려면 녹색 화살표를 클릭하세요.


METAR-TAF: